createdAt,value
2022-09-11T00:04:23.220Z,12.1
2022-09-11T00:09:23.271Z,12.1
2022-09-11T00:14:23.487Z,12.1
2022-09-11T00:25:07.819Z,12.1
2022-09-11T00:29:23.531Z,12.1
2022-09-11T00:34:25.346Z,12.3
2022-09-11T00:39:32.787Z,12.4
2022-09-11T00:44:23.418Z,12.4
2022-09-11T00:49:24.656Z,12.4
2022-09-11T00:54:23.168Z,12.4
2022-09-11T00:59:23.294Z,11.2
2022-09-11T01:04:23.201Z,10.2
2022-09-11T01:09:23.671Z,9.6
2022-09-11T01:14:23.188Z,9.6
2022-09-11T01:19:24.185Z,10.2
2022-09-11T01:24:24.718Z,10.5
2022-09-11T01:29:23.447Z,11.2
2022-09-11T01:34:23.220Z,10.5
2022-09-11T01:39:23.147Z,11.7
2022-09-11T01:44:23.213Z,12.7
2022-09-11T01:49:23.128Z,11.7
2022-09-11T01:54:23.431Z,12.7
2022-09-11T01:59:23.274Z,12.7
2022-09-11T02:04:23.399Z,12.3
2022-09-11T02:09:23.201Z,12.9
2022-09-11T02:14:23.213Z,12.9
2022-09-11T02:19:23.209Z,12.9
2022-09-11T02:24:23.319Z,12.9
2022-09-11T02:29:23.240Z,13.3
2022-09-11T02:34:23.142Z,13.3
2022-09-11T02:39:23.190Z,13.3
2022-09-11T02:44:23.263Z,13.4
2022-09-11T02:49:23.223Z,12.5
2022-09-11T02:54:23.177Z,12.2
2022-09-11T02:59:23.171Z,12.5
2022-09-11T03:04:23.249Z,12.5
2022-09-11T03:09:23.933Z,13.4
2022-09-11T03:14:23.230Z,13.9
2022-09-11T03:19:23.348Z,14.7
2022-09-11T03:24:23.190Z,15.1
2022-09-11T03:29:23.256Z,15.1
2022-09-11T03:34:23.193Z,15.1
2022-09-11T03:39:23.374Z,15.1
2022-09-11T03:44:23.153Z,15.1
2022-09-11T03:49:23.187Z,15.1
2022-09-11T03:54:23.250Z,15.1
2022-09-11T03:59:23.236Z,18.6
2022-09-11T04:04:23.226Z,21.9
2022-09-11T04:09:23.246Z,24
2022-09-11T04:14:23.245Z,24.1
2022-09-11T04:19:23.248Z,28.2
2022-09-11T04:24:23.233Z,30.8
2022-09-11T04:29:23.223Z,31.3
2022-09-11T04:34:23.279Z,32.5
2022-09-11T04:39:23.289Z,32.5
2022-09-11T04:44:23.285Z,37.1
2022-09-11T04:49:23.246Z,37.1
2022-09-11T04:54:23.266Z,37.1
2022-09-11T04:59:23.272Z,40.2
2022-09-11T05:04:26.606Z,42.3
2022-09-11T05:09:23.260Z,42.9
2022-09-11T05:14:23.289Z,46.9
2022-09-11T05:19:23.275Z,46.9
2022-09-11T05:24:23.273Z,46.9
2022-09-11T05:29:23.232Z,42.9
2022-09-11T05:34:23.302Z,41.5
2022-09-11T05:39:23.410Z,41.1
2022-09-11T05:44:23.252Z,40.9
2022-09-11T05:49:23.267Z,40.9
2022-09-11T05:54:23.285Z,40
2022-09-11T05:59:23.257Z,40
2022-09-11T06:04:23.279Z,39.4
2022-09-11T06:09:23.307Z,35.6
2022-09-11T06:14:23.264Z,35.6
2022-09-11T06:19:23.289Z,34.8
2022-09-11T06:24:23.295Z,33.1
2022-09-11T06:29:23.303Z,33.1
2022-09-11T06:34:23.320Z,34.8
2022-09-11T06:39:23.399Z,35
2022-09-11T06:44:23.268Z,35
2022-09-11T06:49:23.263Z,33.1
2022-09-11T06:54:23.260Z,33.1
2022-09-11T06:59:23.267Z,30.6
2022-09-11T07:04:23.294Z,30.6
2022-09-11T07:09:23.357Z,24.7
2022-09-11T07:14:23.309Z,23.5
2022-09-11T07:19:23.261Z,18.9
2022-09-11T07:24:23.292Z,17.5
2022-09-11T07:29:23.317Z,15.8
2022-09-11T07:34:23.816Z,15.8
2022-09-11T07:39:23.299Z,15.4
2022-09-11T07:44:23.311Z,14.8
2022-09-11T07:49:23.373Z,13.7
2022-09-11T07:54:23.315Z,11.8
2022-09-11T07:59:23.352Z,11.8
2022-09-11T08:04:23.336Z,11.8
2022-09-11T08:09:23.568Z,11.8
2022-09-11T08:14:23.357Z,11.8
2022-09-11T08:19:23.434Z,11.8
2022-09-11T08:24:23.342Z,12.3
2022-09-11T08:29:23.345Z,12.3
2022-09-11T08:34:23.390Z,10.8
2022-09-11T08:39:23.352Z,10.8
2022-09-11T08:44:23.389Z,9.8
2022-09-11T08:49:23.405Z,8.6
2022-09-11T08:54:23.334Z,8.3
2022-09-11T08:59:23.395Z,7.1
2022-09-11T09:04:23.379Z,6.8
2022-09-11T09:09:23.397Z,6.8
2022-09-11T09:14:24.960Z,6.6
2022-09-11T09:19:23.413Z,6.8
2022-09-11T09:24:23.456Z,6.8
2022-09-11T09:29:23.404Z,6.8
2022-09-11T09:34:23.376Z,7.1
2022-09-11T09:39:23.417Z,7.1
2022-09-11T09:44:23.407Z,7.1
2022-09-11T09:49:23.526Z,7.1
2022-09-11T09:54:23.364Z,6.1
2022-09-11T09:59:23.384Z,6.1
2022-09-11T10:04:23.396Z,7.1
2022-09-11T10:09:23.435Z,7.1
2022-09-11T10:14:49.649Z,8
2022-09-11T10:19:23.434Z,8.7
2022-09-11T10:24:23.406Z,8.7
2022-09-11T10:29:23.530Z,8.7
2022-09-11T10:34:23.409Z,8.7
2022-09-11T10:39:23.422Z,7.8
2022-09-11T10:44:23.433Z,7.5
2022-09-11T10:49:23.399Z,7
2022-09-11T10:54:23.399Z,6.7
2022-09-11T10:59:23.400Z,6.5
2022-09-11T11:04:23.661Z,6.5
2022-09-11T11:09:25.604Z,6.3
2022-09-11T11:14:23.412Z,6.3
2022-09-11T11:19:23.453Z,6.3
2022-09-11T11:24:23.420Z,6.3
2022-09-11T11:29:23.492Z,6.3
2022-09-11T11:34:23.463Z,6.3
2022-09-11T11:39:23.451Z,6.2
2022-09-11T11:44:23.408Z,6.2
2022-09-11T11:49:23.438Z,6.2
2022-09-11T11:54:23.480Z,6.9
2022-09-11T11:59:23.651Z,7.1
2022-09-11T12:04:23.342Z,7.4
2022-09-11T12:09:24.911Z,8.2
2022-09-11T12:14:23.470Z,9.4
2022-09-11T12:19:23.377Z,9.4
2022-09-11T12:24:23.403Z,9.4
2022-09-11T12:29:31.083Z,8.7
2022-09-11T12:34:23.414Z,8.7
2022-09-11T12:39:23.407Z,8.2
2022-09-11T12:44:23.371Z,8
2022-09-11T12:49:24.420Z,7.6
2022-09-11T12:54:23.379Z,7.6
2022-09-11T12:59:23.655Z,7.3
2022-09-11T13:04:23.419Z,7.3
2022-09-11T13:09:23.439Z,7.2
2022-09-11T13:14:23.415Z,7.2
2022-09-11T13:19:23.358Z,7.3
2022-09-11T13:24:23.411Z,7.3
2022-09-11T13:29:23.404Z,7.2
2022-09-11T13:34:23.407Z,7.2
2022-09-11T13:39:23.379Z,6
2022-09-11T13:44:23.394Z,6
2022-09-11T13:49:23.484Z,7.6
2022-09-11T13:54:23.437Z,7.6
2022-09-11T13:59:23.461Z,7.6
2022-09-11T14:04:23.438Z,7.6
2022-09-11T14:09:23.402Z,6.7
2022-09-11T14:14:23.671Z,6.7
2022-09-11T14:19:23.442Z,6.7
2022-09-11T14:24:23.390Z,5.3
2022-09-11T14:29:23.427Z,5.3
2022-09-11T14:34:23.387Z,5.3
2022-09-11T14:39:23.952Z,5.3
2022-09-11T14:44:23.425Z,5.9
2022-09-11T14:49:23.447Z,6.6
2022-09-11T14:54:24.053Z,5.9
2022-09-11T14:59:23.439Z,5.9
2022-09-11T15:04:23.405Z,5.9
2022-09-11T15:09:23.415Z,5.9
2022-09-11T15:14:38.397Z,5.9
2022-09-11T15:19:23.447Z,5.2
2022-09-11T15:24:23.464Z,5.2
2022-09-11T15:29:23.475Z,5.2
2022-09-11T15:34:23.457Z,5.2
2022-09-11T15:39:23.426Z,5.2
2022-09-11T15:44:23.449Z,5.2
2022-09-11T15:49:23.442Z,5.7
2022-09-11T15:54:23.459Z,5.7
2022-09-11T15:59:23.475Z,5.7
2022-09-11T16:04:23.466Z,5.7
2022-09-11T16:09:23.465Z,5.7
2022-09-11T16:14:23.447Z,5.7
2022-09-11T16:19:23.459Z,5.7
2022-09-11T16:24:24.122Z,5.7
2022-09-11T16:29:23.466Z,5.7
2022-09-11T16:34:23.446Z,5.7
2022-09-11T16:39:23.462Z,5.7
2022-09-11T16:44:23.470Z,6.1
2022-09-11T16:49:23.499Z,6.1
2022-09-11T16:54:23.475Z,6.5
2022-09-11T16:59:23.463Z,6.5
2022-09-11T17:04:23.460Z,6.6
2022-09-11T17:09:23.520Z,6.7
2022-09-11T17:14:23.477Z,7.1
2022-09-11T17:19:23.450Z,7.2
2022-09-11T17:24:23.953Z,7.2
2022-09-11T17:29:23.516Z,7.4
2022-09-11T17:34:23.501Z,7.6
2022-09-11T17:39:23.528Z,8
2022-09-11T17:44:23.566Z,8.5
2022-09-11T17:49:23.544Z,10.1
2022-09-11T17:54:24.882Z,10.1
2022-09-11T17:59:23.477Z,10.2
2022-09-11T18:04:23.570Z,11.2
2022-09-11T18:09:24.477Z,12
2022-09-11T18:14:23.493Z,12
2022-09-11T18:19:26.801Z,12
2022-09-11T18:24:23.494Z,13.4
2022-09-11T18:29:24.905Z,13.4
2022-09-11T18:34:23.515Z,13.4
2022-09-11T18:39:23.462Z,13.4
2022-09-11T18:44:23.543Z,12.1
2022-09-11T18:49:23.534Z,12.1
2022-09-11T18:54:23.457Z,12.1
2022-09-11T18:59:23.529Z,12.1
2022-09-11T19:04:24.081Z,12.1
2022-09-11T19:09:23.543Z,12.1
2022-09-11T19:14:23.489Z,12.5
2022-09-11T19:19:24.978Z,14.4
2022-09-11T19:24:23.473Z,15.3
2022-09-11T19:29:23.523Z,15.3
2022-09-11T19:34:23.671Z,16
2022-09-11T19:39:23.528Z,16
2022-09-11T19:44:23.525Z,16
2022-09-11T19:49:24.032Z,15.7
2022-09-11T19:54:23.502Z,14.4
2022-09-11T19:59:23.545Z,14.3
2022-09-11T20:04:23.569Z,14.4
2022-09-11T20:09:31.209Z,14.4
2022-09-11T20:14:23.499Z,15.7
2022-09-11T20:19:23.557Z,15.9
2022-09-11T20:24:23.554Z,15.9
2022-09-11T20:29:23.549Z,15.9
2022-09-11T20:34:23.563Z,15.9
2022-09-11T20:39:23.552Z,15.4
2022-09-11T20:44:23.585Z,15.4
2022-09-11T20:49:23.554Z,15.4
2022-09-11T20:54:23.609Z,15.4
2022-09-11T20:59:23.572Z,16.1
2022-09-11T21:04:24.613Z,16.6
2022-09-11T21:09:23.565Z,16.6
2022-09-11T21:14:23.596Z,17.3
2022-09-11T21:19:23.579Z,17.4
2022-09-11T21:24:23.590Z,17.4
2022-09-11T21:29:23.583Z,17.4
2022-09-11T21:34:23.555Z,17
2022-09-11T21:39:23.563Z,16.6
2022-09-11T21:44:24.022Z,15.7
2022-09-11T21:49:23.565Z,15.7
2022-09-11T21:54:23.640Z,15.7
2022-09-11T21:59:23.601Z,15.7
2022-09-11T22:04:23.555Z,18.5
2022-09-11T22:09:23.544Z,18.5
2022-09-11T22:14:23.582Z,18.5
2022-09-11T22:19:23.849Z,18.5
2022-09-11T22:24:23.565Z,18.3
2022-09-11T22:29:23.585Z,17.7
2022-09-11T22:34:24.066Z,17.7
2022-09-11T22:39:23.551Z,16.9
2022-09-11T22:44:23.626Z,16.9
2022-09-11T22:49:23.571Z,16.5
2022-09-11T22:54:23.616Z,16.9
2022-09-11T22:59:23.849Z,17.7
2022-09-11T23:04:23.581Z,16.9
2022-09-11T23:09:23.583Z,18.9
2022-09-11T23:14:23.775Z,18.9
2022-09-11T23:19:23.576Z,16.9
2022-09-11T23:24:23.607Z,18.6
2022-09-11T23:29:23.612Z,18.1
2022-09-11T23:34:24.521Z,18.1
2022-09-11T23:39:23.611Z,18.4
2022-09-11T23:44:24.391Z,18.1
2022-09-11T23:49:23.583Z,18.4
2022-09-11T23:54:23.592Z,18.4
2022-09-11T23:59:23.619Z,18.4
